Barraba, New South Wales

2:43 PM AEST on September 04, 2015 (GMT +1000)
Tamworth | | Change Station
CLOSE
Current Station
Airport
Location: Tamworth Airport,
Elevation: 1345 ft
Nearby Weather Stations

Elev 1345 ft 31.08 °S, 150.85 °E | Updated 13 minutes ago

Mostly Cloudy
Mostly Cloudy
66 °F
Feels Like 66 °F
N
8
Wind Variable Wind from West

Today
High -- | Low -- °F
--% Chance of Precip.
Yesterday
High -- | Low -- °F
Precip. -- in
6:10 AM 5:43 PM
Waning Gibbous, 63% visible
Pressure 30.09 in
Visibility 6.2 miles
Clouds Scattered Clouds 3900 ft
Mostly Cloudy 4800 ft
Dew Point 46 °F
Humidity 49%
Rainfall 0.00 in
Snow Depth Not available.
UV 2 out of 12
Pollen Not available.
Air Quality Not available.
Flu Activity Not available.
METAR YSTW 040430Z AUTO 28007KT 9999 // SCT039 BKN048 19/08 Q1019
Pressure 30.09 in
Visibility 6.2 miles
Clouds Scattered Clouds 3900 ft
Mostly Cloudy 4800 ft
Dew Point 46 °F
Humidity 49%
Rainfall 0.00 in
Snow Depth Not available.
UV 2 out of 12
Pollen Not available.
Air Quality Not available.
Flu Activity Not available.
METAR YSTW 040430Z AUTO 28007KT 9999 // SCT039 BKN048 19/08 Q1019

10-Day Weather Forecast

×

Almanac

Astronomy

Sep. 04, 2015 Rise Set
Actual Time
Civil Twilight
Nautical Twilight
Astronomical Twilight
Moon
Length of Visible Light
Length of Day
Tomorrow will be .
, % of the Moon is Illuminated

Today's Extremes

Country Highs Country Lows

Community

WunderPhotos

Upload Photos

1,852,129 photos uploaded!

WunderBlogs® & News

Nearby

Air Quality

  Air Quality AQ Index Pollutant
Not available.

Snow Depth

Station Depth Elevation

Earthquake Activity

City Distance Mag. Time & Date
Minimum magnitude displayed is 2.5.

Coastal Water Temperatures

Place Temperature

Stations

Nearby Weather Stations

Station Location Temp. Windchill Dew Point Humidity Wind Precip. Elev Updated Type